Capitol Logistics 597




OMDB
Dubai International Airport
Dubai, AE
VHHH
Chek Lap Kok International
Hong Kong, HK

Route Details

Aircraft Information
Group: Large Widebodies
Types: B744,MD11
Route Data
Demand: L
Distance: 3200nm
Duration: 7h 34m
Recm'd Route: IVURO M428 MUNGA A777 VAXIM L301 RASKI L639 BPL A791 CEA B465 CTG A599 POU R473 SIERA
Origin Wx: OMDB 242200Z 20008KT 170V240 2500 DU NSC 29/23 Q1003 NOSIG
Dest. Wx: VHHH 242200Z 09010KT 9999 FEW008 SCT025 25/23 Q1008 NOSIG
Notes:

Financial History
Total Freight: 109,365lbs
Average Load: 109,365lbs/flt
Fuel Used: 172,273lbs
Avg. Fuel Used: 172,273lbs/flt
Fuel Expense: $94,750
Avg. Fuel Expense: $94,750
Avg. Fuel Cost: $0.55/lbs
Total Gross Income: $301,847
Pilot Pay: $239
Total Expenses: $39,336
Total Revenue: $166,193
Average Revenue: $301,847.41